createdAt,value
2022-10-29T00:00:45.660Z,102391.63
2022-10-29T00:03:12.221Z,102389.25
2022-10-29T00:05:39.746Z,102393.41
2022-10-29T00:08:06.266Z,102371.84
2022-10-29T00:10:32.725Z,102382.47
2022-10-29T00:13:03.367Z,102381.50
2022-10-29T00:15:30.142Z,102380.13
2022-10-29T00:17:57.024Z,102371.50
2022-10-29T00:20:24.003Z,102373.78
2022-10-29T00:22:54.788Z,102374.22
2022-10-29T00:25:21.504Z,102375.22
2022-10-29T00:27:48.046Z,102378.19
2022-10-29T00:30:14.548Z,102367.34
2022-10-29T00:32:41.057Z,102379.78
2022-10-29T00:35:07.788Z,102370.69
2022-10-29T00:37:35.296Z,102378.50
2022-10-29T00:40:01.797Z,102364.38
2022-10-29T00:42:28.220Z,102363.38
2022-10-29T00:44:54.635Z,102363.38
2022-10-29T00:47:26.322Z,102366.03
2022-10-29T00:50:01.832Z,102359.19
2022-10-29T00:52:32.394Z,102354.19
2022-10-29T00:55:03.066Z,102351.00
2022-10-29T00:57:34.908Z,102351.00
2022-10-29T01:00:01.663Z,102348.34
2022-10-29T01:02:31.717Z,102344.69
2022-10-29T01:04:58.686Z,102343.53
2022-10-29T01:07:25.173Z,102345.75
2022-10-29T01:09:51.691Z,102352.69
2022-10-29T01:12:42.907Z,102343.16
2022-10-29T01:15:26.232Z,102340.38
2022-10-29T01:18:19.622Z,102333.81
2022-10-29T01:21:08.037Z,102341.34
2022-10-29T01:23:53.249Z,102347.75
2022-10-29T01:26:34.503Z,102352.19
2022-10-29T01:29:33.119Z,102337.94
2022-10-29T01:32:29.856Z,102334.44
2022-10-29T01:35:15.007Z,102327.47
2022-10-29T01:37:50.808Z,102327.06
2022-10-29T01:40:28.263Z,102313.41
2022-10-29T01:43:14.609Z,102315.50
2022-10-29T01:45:56.191Z,102318.47
2022-10-29T01:48:33.116Z,102314.69
2022-10-29T01:51:05.035Z,102305.72
2022-10-29T01:53:35.854Z,102307.22
2022-10-29T01:56:02.272Z,102312.25
2022-10-29T01:58:28.782Z,102296.47
2022-10-29T02:01:32.745Z,102297.47
2022-10-29T02:04:26.634Z,102294.63
2022-10-29T02:07:26.733Z,102301.41
2022-10-29T02:10:27.337Z,102309.00
2022-10-29T02:12:55.605Z,102299.34
2022-10-29T02:15:44.674Z,102283.41
2022-10-29T02:18:11.398Z,102285.97
2022-10-29T02:20:42.331Z,102284.22
2022-10-29T02:23:09.164Z,102290.84
2022-10-29T02:25:35.662Z,102287.03
2022-10-29T02:28:02.256Z,102294.84
2022-10-29T02:30:28.747Z,102295.28
2022-10-29T02:32:55.374Z,102285.81
2022-10-29T02:35:22.027Z,102300.47
2022-10-29T02:37:48.741Z,102295.47
2022-10-29T02:40:15.322Z,102302.28
2022-10-29T02:42:41.848Z,102295.84
2022-10-29T02:45:08.585Z,102302.38
2022-10-29T02:47:35.045Z,102287.97
2022-10-29T02:50:01.507Z,102283.63
2022-10-29T02:52:28.089Z,102267.00
2022-10-29T02:54:54.512Z,102263.28
2022-10-29T02:57:20.981Z,102279.91
2022-10-29T02:59:47.423Z,102260.69
2022-10-29T03:02:14.027Z,102253.41
2022-10-29T03:04:41.502Z,102259.94
2022-10-29T03:07:07.983Z,102262.28
2022-10-29T03:09:34.425Z,102248.56
2022-10-29T03:12:00.874Z,102254.25
2022-10-29T03:14:27.275Z,102251.59
2022-10-29T03:16:53.762Z,102249.44
2022-10-29T03:19:20.169Z,102253.78
2022-10-29T03:21:46.575Z,102253.78
2022-10-29T03:24:12.994Z,102242.16
2022-10-29T03:26:39.463Z,102250.81
2022-10-29T03:29:05.917Z,102265.16
2022-10-29T03:31:32.385Z,102261.50
2022-10-29T03:33:58.842Z,102264.72
2022-10-29T03:36:25.406Z,102273.38
2022-10-29T03:38:51.943Z,102265.22
2022-10-29T03:41:18.384Z,102274.88
2022-10-29T03:43:44.894Z,102270.09
2022-10-29T03:46:11.381Z,102272.44
2022-10-29T03:48:38.039Z,102274.13
2022-10-29T03:51:06.127Z,102264.16
2022-10-29T03:53:33.632Z,102270.84
2022-10-29T03:56:00.146Z,102272.13
2022-10-29T03:58:27.355Z,102257.69
2022-10-29T04:00:57.907Z,102262.88
2022-10-29T04:03:25.253Z,102255.88
2022-10-29T04:05:51.754Z,102263.47
2022-10-29T04:08:18.408Z,102265.59
2022-10-29T04:10:47.368Z,102257.47
2022-10-29T04:13:14.933Z,102266.28
2022-10-29T04:15:41.656Z,102246.00
2022-10-29T04:18:09.204Z,102245.47
2022-10-29T04:21:08.735Z,102254.16
2022-10-29T04:28:56.108Z,102246.53
2022-10-29T04:31:22.662Z,102236.03
2022-10-29T04:33:49.158Z,102243.19
2022-10-29T04:36:15.612Z,102240.84
2022-10-29T04:38:42.027Z,102236.53
2022-10-29T04:41:08.493Z,102240.00
2022-10-29T04:43:34.926Z,102239.84
2022-10-29T04:46:01.419Z,102235.66
2022-10-29T04:48:28.785Z,102239.19
2022-10-29T04:50:55.536Z,102228.22
2022-10-29T04:53:22.668Z,102232.69
2022-10-29T04:55:49.157Z,102228.06
2022-10-29T04:58:18.199Z,102228.06
2022-10-29T05:00:45.704Z,102223.59
2022-10-29T05:03:12.861Z,102223.59
2022-10-29T05:05:40.496Z,102223.59
2022-10-29T05:08:07.598Z,102230.59
2022-10-29T05:10:36.539Z,102224.41
2022-10-29T05:13:09.773Z,102218.72
2022-10-29T05:15:36.468Z,102219.25
2022-10-29T05:18:03.423Z,102213.28
2022-10-29T05:20:30.403Z,102209.63
2022-10-29T05:23:07.504Z,102203.31
2022-10-29T05:25:36.145Z,102196.16
2022-10-29T05:28:12.167Z,102191.81
2022-10-29T05:30:39.090Z,102190.00
2022-10-29T05:33:09.645Z,102197.69
2022-10-29T05:35:36.772Z,102205.47
2022-10-29T05:38:04.090Z,102198.19
2022-10-29T05:40:30.559Z,102200.53
2022-10-29T05:42:57.355Z,102200.22
2022-10-29T05:45:23.979Z,102196.56
2022-10-29T05:47:59.230Z,102195.13
2022-10-29T05:50:26.217Z,102205.44
2022-10-29T05:52:59.977Z,102203.16
2022-10-29T05:55:27.493Z,102203.16
2022-10-29T05:58:04.997Z,102194.84
2022-10-29T06:00:34.823Z,102189.84
2022-10-29T06:03:01.522Z,102197.81
2022-10-29T06:05:28.441Z,102190.84
2022-10-29T06:07:59.611Z,102193.00
2022-10-29T06:10:28.792Z,102191.03
2022-10-29T06:12:55.256Z,102189.53
2022-10-29T06:15:21.968Z,102184.88
2022-10-29T06:17:48.742Z,102197.19
2022-10-29T06:20:17.484Z,102195.03
2022-10-29T06:22:43.904Z,102201.84
2022-10-29T06:25:10.394Z,102201.53
2022-10-29T06:27:37.023Z,102192.28
2022-10-29T06:30:04.865Z,102185.97
2022-10-29T06:32:31.375Z,102195.47
2022-10-29T06:34:58.121Z,102191.97
2022-10-29T06:37:24.582Z,102188.63
2022-10-29T06:39:51.047Z,102195.28
2022-10-29T06:42:17.520Z,102190.66
2022-10-29T06:44:43.974Z,102184.31
2022-10-29T06:47:10.395Z,102187.66
2022-10-29T06:49:36.811Z,102183.19
2022-10-29T06:52:03.317Z,102186.34
2022-10-29T06:54:29.724Z,102174.72
2022-10-29T06:56:56.212Z,102167.72
2022-10-29T06:59:24.454Z,102164.72
2022-10-29T07:01:51.016Z,102159.09
2022-10-29T07:04:18.452Z,102161.28
2022-10-29T07:06:45.088Z,102164.63
2022-10-29T07:09:11.560Z,102151.31
2022-10-29T07:11:37.985Z,102153.31
2022-10-29T07:14:05.978Z,102154.13
2022-10-29T07:16:32.476Z,102162.47
2022-10-29T07:18:58.935Z,102157.16
2022-10-29T07:21:25.376Z,102155.50
2022-10-29T07:23:52.217Z,102149.84
2022-10-29T07:26:18.771Z,102159.19
2022-10-29T07:28:45.272Z,102154.19
2022-10-29T07:31:11.786Z,102160.88
2022-10-29T07:33:38.268Z,102168.19
2022-10-29T07:36:05.109Z,102166.22
2022-10-29T07:38:31.546Z,102155.91
2022-10-29T07:40:57.978Z,102158.41
2022-10-29T07:43:24.481Z,102156.75
2022-10-29T07:45:51.483Z,102154.25
2022-10-29T07:48:21.737Z,102167.91
2022-10-29T07:50:49.021Z,102167.56
2022-10-29T07:53:15.603Z,102168.56
2022-10-29T07:55:42.073Z,102158.38
2022-10-29T07:58:12.302Z,102161.88
2022-10-29T08:00:40.594Z,102168.25
2022-10-29T08:03:07.591Z,102168.69
2022-10-29T08:05:34.150Z,102149.84
2022-10-29T08:08:00.971Z,102150.50
2022-10-29T08:10:28.316Z,102147.91
2022-10-29T08:12:58.023Z,102143.06
2022-10-29T08:15:26.354Z,102149.00
2022-10-29T08:17:53.430Z,102138.09
2022-10-29T08:20:20.545Z,102134.22
2022-10-29T08:22:47.311Z,102135.09
2022-10-29T08:25:15.026Z,102124.69
2022-10-29T08:27:42.179Z,102134.25
2022-10-29T08:30:11.676Z,102126.66
2022-10-29T08:32:45.157Z,102129.56
2022-10-29T08:35:11.877Z,102123.41
2022-10-29T08:37:45.318Z,102134.41
2022-10-29T08:40:36.883Z,102144.06
2022-10-29T08:43:15.590Z,102130.75
2022-10-29T08:45:50.971Z,102127.97
2022-10-29T08:48:58.236Z,102134.31
2022-10-29T08:51:49.540Z,102124.69
2022-10-29T08:54:30.200Z,102115.31
2022-10-29T08:57:01.977Z,102121.16
2022-10-29T08:59:33.908Z,102120.91
2022-10-29T09:02:00.493Z,102128.78
2022-10-29T09:04:36.010Z,102133.16
2022-10-29T09:07:16.417Z,102132.78
2022-10-29T09:10:06.594Z,102143.13
2022-10-29T09:12:55.060Z,102136.72
2022-10-29T09:15:38.008Z,102127.66
2022-10-29T09:18:16.281Z,102144.00
2022-10-29T09:20:59.924Z,102132.25
2022-10-29T09:24:05.056Z,102129.63
2022-10-29T09:26:54.204Z,102120.31
2022-10-29T09:29:58.981Z,102114.00
2022-10-29T09:32:34.390Z,102103.66
2022-10-29T09:35:14.859Z,102094.81
2022-10-29T09:37:49.396Z,102089.69
2022-10-29T09:40:18.339Z,102098.19
2022-10-29T09:42:47.404Z,102098.19
2022-10-29T09:45:17.943Z,102091.03
2022-10-29T09:48:20.164Z,102077.19
2022-10-29T09:51:01.973Z,102076.97
2022-10-29T09:53:29.511Z,102075.13
2022-10-29T09:55:55.991Z,102078.22
2022-10-29T09:58:27.504Z,102073.50
2022-10-29T10:00:56.518Z,102067.09
2022-10-29T10:03:46.526Z,102063.59
2022-10-29T10:06:16.449Z,102027.41
2022-10-29T10:09:05.687Z,102029.06
2022-10-29T10:11:38.251Z,102040.63
2022-10-29T10:14:16.767Z,102034.44
2022-10-29T10:16:43.740Z,102041.69
2022-10-29T10:19:31.313Z,102035.53
2022-10-29T10:22:00.215Z,102046.31
2022-10-29T10:24:35.399Z,102059.75
2022-10-29T10:27:25.721Z,102056.28
2022-10-29T10:30:15.881Z,102066.44
2022-10-29T10:32:42.412Z,102056.72
2022-10-29T10:35:30.346Z,102053.66
2022-10-29T10:37:59.757Z,102046.22
2022-10-29T10:40:26.756Z,102034.00
2022-10-29T10:42:55.690Z,102050.75
2022-10-29T10:45:32.910Z,102043.94
2022-10-29T10:48:01.249Z,102052.00
2022-10-29T10:50:30.662Z,102040.59
2022-10-29T10:52:59.988Z,102036.03
2022-10-29T10:55:38.648Z,102032.91
2022-10-29T10:58:25.505Z,102021.97
2022-10-29T11:00:59.318Z,102015.53
2022-10-29T11:03:48.914Z,102023.59
2022-10-29T11:06:18.129Z,102007.81
2022-10-29T11:09:11.891Z,102006.31
2022-10-29T11:12:15.569Z,102008.50
2022-10-29T11:14:48.773Z,102002.28
2022-10-29T11:17:56.184Z,102015.75
2022-10-29T11:20:31.347Z,102019.06
2022-10-29T11:23:27.657Z,102019.97
2022-10-29T11:26:08.945Z,102012.28
2022-10-29T11:28:43.603Z,102016.56
2022-10-29T11:31:22.155Z,102010.53
2022-10-29T11:34:01.143Z,102013.69
2022-10-29T11:36:31.625Z,102009.31
2022-10-29T11:39:01.206Z,102010.41
2022-10-29T11:41:39.853Z,101992.56
2022-10-29T11:44:14.768Z,101978.00
2022-10-29T11:47:02.904Z,101982.09
2022-10-29T11:49:51.349Z,101980.22
2022-10-29T11:52:28.621Z,101977.69
2022-10-29T11:55:15.245Z,101973.31
2022-10-29T11:57:55.612Z,101973.22
2022-10-29T12:00:26.130Z,101970.75
2022-10-29T12:03:04.657Z,101967.13
2022-10-29T12:05:44.247Z,101959.28
2022-10-29T12:08:45.559Z,101951.19
2022-10-29T12:11:40.532Z,101948.13
2022-10-29T12:14:29.951Z,101951.13
2022-10-29T12:17:11.485Z,101952.28
2022-10-29T12:19:44.951Z,101947.31
2022-10-29T12:22:26.637Z,101942.41
2022-10-29T12:25:20.860Z,101944.22
2022-10-29T12:28:09.365Z,101948.34
2022-10-29T12:30:47.768Z,101932.13
2022-10-29T12:33:27.436Z,101936.91
2022-10-29T12:35:56.994Z,101932.63
2022-10-29T12:38:39.677Z,101933.53
2022-10-29T12:41:14.725Z,101922.25
2022-10-29T12:43:41.960Z,101931.63
2022-10-29T12:46:43.404Z,101928.94
2022-10-29T12:49:22.135Z,101924.69
2022-10-29T12:52:18.556Z,101926.16
2022-10-29T12:54:50.491Z,101917.78
2022-10-29T12:57:16.889Z,101913.91
2022-10-29T12:59:44.524Z,101917.75
2022-10-29T13:02:37.322Z,101904.47
2022-10-29T13:05:06.987Z,101903.00
2022-10-29T13:07:34.618Z,101895.09
2022-10-29T13:10:27.028Z,101900.16
2022-10-29T13:12:59.123Z,101899.88
2022-10-29T13:15:31.059Z,101887.88
2022-10-29T13:18:04.371Z,101888.78
2022-10-29T13:20:41.139Z,101899.75
2022-10-29T13:23:22.476Z,101893.56
2022-10-29T13:25:56.359Z,101888.91
2022-10-29T13:28:22.785Z,101891.28
2022-10-29T13:31:01.502Z,101878.81
2022-10-29T13:33:27.923Z,101879.72
2022-10-29T13:36:00.270Z,101870.78
2022-10-29T13:39:04.860Z,101876.00
2022-10-29T13:41:41.948Z,101868.28
2022-10-29T13:44:22.853Z,101866.66
2022-10-29T13:47:17.818Z,101865.41
2022-10-29T13:49:46.461Z,101858.34
2022-10-29T13:52:18.292Z,101857.78
2022-10-29T13:54:54.950Z,101858.47
2022-10-29T13:57:30.037Z,101854.13
2022-10-29T14:00:07.319Z,101862.97
2022-10-29T14:02:38.968Z,101856.13
2022-10-29T14:05:11.265Z,101855.06
2022-10-29T14:08:14.511Z,101842.34
2022-10-29T14:10:40.905Z,101847.63
2022-10-29T14:13:23.498Z,101848.59
2022-10-29T14:16:06.363Z,101842.91
2022-10-29T14:18:44.285Z,101843.84
2022-10-29T14:21:28.970Z,101844.88
2022-10-29T14:24:00.854Z,101844.03
2022-10-29T14:26:30.022Z,101845.19
2022-10-29T14:28:56.755Z,101848.34
2022-10-29T14:31:25.048Z,101851.72
2022-10-29T14:33:58.953Z,101848.69
2022-10-29T14:36:42.205Z,101850.78
2022-10-29T14:39:32.467Z,101840.91
2022-10-29T14:41:59.374Z,101845.09
2022-10-29T14:44:29.115Z,101848.72
2022-10-29T14:46:58.623Z,101845.19
2022-10-29T14:49:25.656Z,101843.19
2022-10-29T14:51:55.764Z,101839.47
2022-10-29T14:54:26.276Z,101845.19
2022-10-29T14:56:57.894Z,101834.69
2022-10-29T14:59:29.487Z,101834.19
2022-10-29T15:02:05.588Z,101822.88
2022-10-29T15:04:50.273Z,101834.34
2022-10-29T15:07:19.723Z,101847.56
2022-10-29T15:09:46.834Z,101841.06
2022-10-29T15:12:32.858Z,101837.34
2022-10-29T15:15:09.136Z,101832.09
2022-10-29T15:17:41.072Z,101828.00
2022-10-29T15:20:26.282Z,101838.81
2022-10-29T15:22:55.753Z,101832.44
2022-10-29T15:25:29.402Z,101831.44
2022-10-29T15:27:56.246Z,101822.81
2022-10-29T15:30:30.614Z,101818.06
2022-10-29T15:33:08.070Z,101829.16
2022-10-29T15:35:48.683Z,101819.25
2022-10-29T15:38:51.986Z,101808.75
2022-10-29T15:41:18.865Z,101803.03
2022-10-29T15:43:57.267Z,101802.25
2022-10-29T15:46:30.074Z,101797.97
2022-10-29T15:48:56.673Z,101800.69
2022-10-29T15:51:30.947Z,101803.19
2022-10-29T15:54:02.624Z,101798.47
2022-10-29T15:56:31.585Z,101794.56
2022-10-29T15:59:00.436Z,101795.84
2022-10-29T16:01:27.004Z,101786.97
2022-10-29T16:03:53.600Z,101784.31
2022-10-29T16:06:20.140Z,101777.31
2022-10-29T16:08:57.114Z,101782.53
2022-10-29T16:11:24.002Z,101780.72
2022-10-29T16:13:54.643Z,101783.00
2022-10-29T16:16:23.760Z,101769.78
2022-10-29T16:18:50.332Z,101766.53
2022-10-29T16:21:25.253Z,101752.72
2022-10-29T16:23:52.245Z,101748.19
2022-10-29T16:26:24.894Z,101748.63
2022-10-29T16:28:53.214Z,101752.34
2022-10-29T16:31:26.753Z,101747.41
2022-10-29T16:33:56.573Z,101745.53
2022-10-29T16:36:23.124Z,101746.56
2022-10-29T16:38:49.643Z,101748.41
2022-10-29T16:41:18.874Z,101741.81
2022-10-29T16:43:45.592Z,101741.00
2022-10-29T16:46:12.792Z,101741.44
2022-10-29T16:48:39.518Z,101746.84
2022-10-29T16:51:06.644Z,101744.59
2022-10-29T16:53:33.201Z,101748.31
2022-10-29T16:55:59.897Z,101740.84
2022-10-29T16:58:26.422Z,101744.78
2022-10-29T17:01:05.056Z,101744.78
2022-10-29T17:03:33.123Z,101738.59
2022-10-29T17:06:08.227Z,101737.78
2022-10-29T17:08:35.825Z,101740.28
2022-10-29T17:11:04.208Z,101737.22
2022-10-29T17:13:30.702Z,101740.31
2022-10-29T17:15:57.282Z,101732.88
2022-10-29T17:18:24.738Z,101740.31
2022-10-29T17:20:58.314Z,101739.47
2022-10-29T17:23:24.980Z,101746.94
2022-10-29T17:25:53.547Z,101748.19
2022-10-29T17:28:20.902Z,101753.16
2022-10-29T17:30:47.421Z,101748.56
2022-10-29T17:33:14.099Z,101755.41
2022-10-29T17:35:40.543Z,101757.25
2022-10-29T17:38:06.998Z,101755.59
2022-10-29T17:40:33.413Z,101758.09
2022-10-29T17:43:00.161Z,101757.28
2022-10-29T17:45:26.907Z,101741.19
2022-10-29T17:47:58.396Z,101748.63
2022-10-29T17:50:25.387Z,101760.00
2022-10-29T17:52:53.209Z,101757.94
2022-10-29T17:55:19.809Z,101769.72
2022-10-29T17:57:46.250Z,101759.38
2022-10-29T18:00:13.216Z,101763.50
2022-10-29T18:02:39.848Z,101763.91
2022-10-29T18:05:07.512Z,101775.88
2022-10-29T18:07:34.229Z,101776.50
2022-10-29T18:10:00.681Z,101783.94
2022-10-29T18:12:27.169Z,101789.50
2022-10-29T18:14:53.580Z,101793.22
2022-10-29T18:17:20.027Z,101806.88
2022-10-29T18:19:46.500Z,101799.00
2022-10-29T18:22:12.943Z,101799.63
2022-10-29T18:24:39.392Z,101794.44
2022-10-29T18:27:05.854Z,101789.91
2022-10-29T18:29:32.332Z,101784.97
2022-10-29T18:31:58.755Z,101784.13
2022-10-29T18:34:25.290Z,101788.06
2022-10-29T18:36:51.693Z,101799.00
2022-10-29T18:39:18.129Z,101795.69
2022-10-29T18:41:44.582Z,101796.53
2022-10-29T18:44:11.058Z,101801.91
2022-10-29T18:46:37.583Z,101791.56
2022-10-29T18:49:04.301Z,101796.75
2022-10-29T18:51:32.009Z,101798.81
2022-10-29T18:53:59.531Z,101797.78
2022-10-29T18:56:27.452Z,101799.22
2022-10-29T18:58:55.685Z,101794.69
2022-10-29T19:01:28.362Z,101794.69
2022-10-29T19:03:56.878Z,101789.72
2022-10-29T19:06:25.815Z,101784.16
2022-10-29T19:08:52.729Z,101782.06
2022-10-29T19:11:21.806Z,101772.16
2022-10-29T19:13:59.907Z,101770.09
2022-10-29T19:16:27.634Z,101770.69
2022-10-29T19:19:08.163Z,101774.22
2022-10-29T19:21:36.288Z,101771.09
2022-10-29T19:24:04.328Z,101768.00
2022-10-29T19:26:32.637Z,101784.94
2022-10-29T19:29:00.688Z,101790.72
2022-10-29T19:31:29.688Z,101792.78
2022-10-29T19:33:58.289Z,101786.59
2022-10-29T19:36:27.400Z,101794.22
2022-10-29T19:38:54.368Z,101790.09
2022-10-29T19:41:20.965Z,101789.25
2022-10-29T19:43:47.867Z,101789.47
2022-10-29T19:46:16.798Z,101799.97
2022-10-29T19:48:48.031Z,101805.34
2022-10-29T19:51:14.474Z,101788.22
2022-10-29T19:53:41.040Z,101792.78
2022-10-29T19:56:12.132Z,101790.69
2022-10-29T19:58:38.857Z,101794.22
2022-10-29T20:01:08.140Z,101800.19
2022-10-29T20:03:35.376Z,101802.03
2022-10-29T20:06:01.875Z,101810.09
2022-10-29T20:08:28.418Z,101804.31
2022-10-29T20:10:58.903Z,101803.91
2022-10-29T20:13:26.000Z,101803.91
2022-10-29T20:15:52.863Z,101804.31
2022-10-29T20:18:19.914Z,101805.53
2022-10-29T20:20:46.410Z,101801.41
2022-10-29T20:23:12.836Z,101799.94
2022-10-29T20:25:39.265Z,101807.78
2022-10-29T20:28:05.763Z,101800.13
2022-10-29T20:30:32.225Z,101803.81
2022-10-29T20:32:58.943Z,101817.66
2022-10-29T20:35:26.189Z,101806.69
2022-10-29T20:37:52.701Z,101813.28
2022-10-29T20:40:19.176Z,101813.47
2022-10-29T20:42:49.661Z,101820.72
2022-10-29T20:45:17.115Z,101816.78
2022-10-29T20:47:43.599Z,101814.50
2022-10-29T20:50:10.052Z,101814.84
2022-10-29T20:52:36.522Z,101812.56
2022-10-29T20:55:03.039Z,101813.78
2022-10-29T20:57:29.526Z,101814.19
2022-10-29T20:59:58.478Z,101806.94
2022-10-29T21:02:25.277Z,101816.22
2022-10-29T21:04:51.936Z,101817.25
2022-10-29T21:07:18.781Z,101821.13
2022-10-29T21:09:45.208Z,101818.84
2022-10-29T21:12:11.637Z,101829.38
2022-10-29T21:14:38.066Z,101827.50
2022-10-29T21:17:04.596Z,101832.63
2022-10-29T21:19:32.148Z,101830.66
2022-10-29T21:21:58.643Z,101826.22
2022-10-29T21:24:25.075Z,101839.13
2022-10-29T21:26:51.497Z,101831.25
2022-10-29T21:29:17.946Z,101831.84
2022-10-29T21:31:47.636Z,101845.16
2022-10-29T21:34:14.062Z,101848.44
2022-10-29T21:36:40.603Z,101837.38
2022-10-29T21:39:07.040Z,101841.66
2022-10-29T21:41:33.461Z,101840.56
2022-10-29T21:43:59.869Z,101834.88
2022-10-29T21:46:26.389Z,101836.88
2022-10-29T21:48:56.001Z,101844.44
2022-10-29T21:51:22.454Z,101843.34
2022-10-29T21:53:48.852Z,101845.78
2022-10-29T21:56:15.756Z,101845.13
2022-10-29T21:58:42.742Z,101850.38
2022-10-29T22:01:10.473Z,101847.44
2022-10-29T22:03:40.390Z,101836.09
2022-10-29T22:06:10.534Z,101848.41
2022-10-29T22:08:37.050Z,101855.41
2022-10-29T22:11:04.359Z,101848.97
2022-10-29T22:13:31.969Z,101850.16
2022-10-29T22:15:58.861Z,101847.50
2022-10-29T22:18:25.889Z,101847.22
2022-10-29T22:21:11.855Z,101851.28
2022-10-29T22:23:43.638Z,101858.94
2022-10-29T22:26:10.299Z,101857.38
2022-10-29T22:28:37.511Z,101857.47
2022-10-29T22:31:05.212Z,101856.81
2022-10-29T22:33:32.539Z,101864.25
2022-10-29T22:36:11.141Z,101861.47
2022-10-29T22:38:38.205Z,101862.22
2022-10-29T22:41:10.001Z,101868.13
2022-10-29T22:43:36.623Z,101870.13
2022-10-29T22:46:04.229Z,101872.53
2022-10-29T22:48:30.708Z,101876.84
2022-10-29T22:51:10.452Z,101872.69
2022-10-29T22:53:37.012Z,101861.56
2022-10-29T22:56:03.688Z,101872.97
2022-10-29T22:58:30.322Z,101877.00
2022-10-29T23:01:07.177Z,101874.34
2022-10-29T23:03:34.630Z,101874.69
2022-10-29T23:06:03.437Z,101879.91
2022-10-29T23:08:31.172Z,101882.13
2022-10-29T23:10:58.166Z,101869.31
2022-10-29T23:13:24.622Z,101875.84
2022-10-29T23:15:52.754Z,101877.38
2022-10-29T23:18:19.509Z,101884.63
2022-10-29T23:20:45.979Z,101873.94
2022-10-29T23:23:13.425Z,101881.66
2022-10-29T23:25:41.565Z,101882.53
2022-10-29T23:28:09.088Z,101893.56
2022-10-29T23:30:35.630Z,101882.44
2022-10-29T23:33:02.079Z,101877.59
2022-10-29T23:35:28.503Z,101878.25
2022-10-29T23:37:55.282Z,101882.78
2022-10-29T23:40:22.223Z,101879.81
2022-10-29T23:42:48.778Z,101878.84
2022-10-29T23:45:16.907Z,101886.00
2022-10-29T23:47:43.426Z,101875.88
2022-10-29T23:50:10.061Z,101894.19
2022-10-29T23:52:36.526Z,101890.88
2022-10-29T23:55:03.054Z,101883.91
2022-10-29T23:57:29.531Z,101895.38
2022-10-29T23:59:55.960Z,101890.91
